This is the latest recevied weather packets stored in our database for station/object KC8UZG. If no packets are shown the sender has not sent any weather packets the latest 1 day(s).
| Time | Temp. | Humidity | Pressure | Rain* | Wind** | Luminosity | Snow |
|---|---|---|---|---|---|---|---|
| 1778000141 | 18.89° C | 81% | 1008 hPa | 0 mm | 0 m/s | 92 W/m² | - |
| 1777999520 | 18.89° C | 81% | 1008.2 hPa | 0 mm | 0 m/s | 76 W/m² | - |
| 1777998926 | 18.89° C | 81% | 1008.3 hPa | 0 mm | 0.45 m/s, 252° | 88 W/m² | - |
| 1777998332 | 18.89° C | 81% | 1008.3 hPa | 0 mm | 0.45 m/s, 230° | 78 W/m² | - |
| 1777997738 | 19.44° C | 81% | 1008.3 hPa | 0 mm | 0.45 m/s, 254° | 110 W/m² | - |
| 1777997117 | 19.44° C | 81% | 1008.2 hPa | 0 mm | 1.34 m/s, 257° | 190 W/m² | - |
| 1777996523 | 18.89° C | 82% | 1008.3 hPa | 0 mm | 1.34 m/s, 248° | 172 W/m² | - |
| 1777995928 | 18.89° C | 81% | 1008 hPa | 0 mm | 1.34 m/s, 217° | 170 W/m² | - |
| 1777995335 | 19.44° C | 80% | 1008 hPa | 0 mm | 0.45 m/s, 256° | 173 W/m² | - |
| 1777994741 | 19.44° C | 79% | 1008 hPa | 0 mm | 0 m/s | 180 W/m² | - |
| 1777994120 | 19.44° C | 79% | 1008 hPa | 0 mm | 0 m/s | 178 W/m² | - |
| 1777993526 | 19.44° C | 79% | 1007.8 hPa | 0 mm | 0 m/s | 230 W/m² | - |
| 1777992932 | 18.89° C | 81% | 1008 hPa | 0 mm | 0 m/s | 247 W/m² | - |
| 1777992338 | 17.78° C | 84% | 1008 hPa | 0 mm | 0.89 m/s, 251° | 272 W/m² | - |
| 1777991717 | 17.22° C | 89% | 1007.8 hPa | 0 mm | 0.45 m/s, 265° | 140 W/m² | - |
| 1777991123 | 16.11° C | 96% | 1007.7 hPa | 0 mm | 0 m/s | 148 W/m² | - |
| 1777990529 | 15° C | 99% | 1007.6 hPa | 0 mm | 0.89 m/s, 259° | 101 W/m² | - |
| 1777989935 | 15° C | 99% | 1007.3 hPa | 0 mm | 0 m/s | 97 W/m² | - |
| 1777989341 | 15° C | 99% | 1007.3 hPa | 0 mm | 0 m/s | 85 W/m² | - |
| 1777988720 | 14.44° C | 99% | 1007.3 hPa | 0 mm | 0 m/s | 91 W/m² | - |
| 1777988126 | 14.44° C | 99% | 1007.2 hPa | 0 mm | 0 m/s | 101 W/m² | - |
| 1777987532 | 13.89° C | 99% | 1007 hPa | 0 mm | 0 m/s | 84 W/m² | - |
| 1777986937 | 13.89° C | 99% | 1007 hPa | 0 mm | 0 m/s | 65 W/m² | - |
| 1777986317 | 13.89° C | 99% | 1007 hPa | 0 mm | 0 m/s | 57 W/m² | - |
| 1777985723 | 13.33° C | 99% | 1007 hPa | 0 mm | 0 m/s | 59 W/m² | - |
* Rain latest hour (hover to see other rain measurements)
** Current wind speed in m/s (hover to see current wind gust speed)